NRT weather

Narita International Airport
Tokyo, Chiba Prefecture, Japan

Public forecast

Using degrees Celsius for public forecast. Weather courtesy of forecast.io.

Current aviation weather report (METAR) for Narita International Airport

Retrieved 2020/01/19 09:00 UTC (40 minutes ago):

RJAA 190900Z 15004KT 9999 FEW030 BKN180 06/00 Q1014 NOSIG RMK 1CU030 7AC180 A2995

Aviation forecast (TAF) for Narita International Airport

Retrieved 2020/01/19 06:00 UTC (4 hours ago):

TAF RJAA 190505Z 1906/2012 14005KT 9999 FEW030 BECMG 1915/1917 30005KT